createdAt,value
2018-01-20T00:02:21.995Z,5.70
2018-01-20T00:04:49.434Z,7.70
2018-01-20T00:07:16.900Z,8.90
2018-01-20T00:09:56.083Z,6.18
2018-01-20T00:12:23.578Z,9.80
2018-01-20T00:14:50.998Z,6.80
2018-01-20T00:17:19.275Z,6.72
2018-01-20T00:19:46.733Z,7.90
2018-01-20T00:22:23.203Z,11.10
2018-01-20T00:24:57.156Z,9.27
2018-01-20T00:27:24.606Z,7.53
2018-01-20T00:29:52.053Z,6.60
2018-01-20T00:32:19.506Z,8.23
2018-01-20T00:34:46.959Z,7.95
2018-01-20T00:37:14.410Z,7.32
2018-01-20T00:39:41.845Z,6.45
2018-01-20T00:42:10.067Z,7.12
2018-01-20T00:44:37.525Z,9.30
2018-01-20T00:47:05.931Z,9.60
2018-01-20T00:49:33.394Z,12.52
2018-01-20T00:52:01.603Z,10.02
2018-01-20T00:54:29.079Z,9.20
2018-01-20T00:56:56.526Z,7.55
2018-01-20T00:59:24.601Z,7.20
2018-01-20T01:01:52.131Z,5.15
2018-01-20T01:04:19.581Z,9.65
2018-01-20T01:06:47.053Z,7.12
2018-01-20T01:09:14.567Z,6.82
2018-01-20T01:11:42.020Z,7.97
2018-01-20T01:14:09.502Z,7.22
2018-01-20T01:16:36.915Z,8.48
2018-01-20T01:19:04.390Z,7.05
2018-01-20T01:21:31.819Z,9.02
2018-01-20T01:23:59.294Z,9.93
2018-01-20T01:26:26.753Z,7.82
2018-01-20T01:28:54.180Z,7.72
2018-01-20T01:31:22.455Z,7.90
2018-01-20T01:33:49.900Z,11.15
2018-01-20T01:36:17.385Z,9.50
2018-01-20T01:38:44.820Z,6.57
2018-01-20T01:41:12.288Z,8.48
2018-01-20T01:43:39.720Z,6.87
2018-01-20T01:46:07.184Z,9.45
2018-01-20T01:48:34.836Z,4.53
2018-01-20T01:51:02.291Z,8.90
2018-01-20T01:53:29.744Z,4.55
2018-01-20T01:55:57.198Z,5.00
2018-01-20T01:58:24.716Z,6.20
2018-01-20T02:00:52.160Z,7.05
2018-01-20T02:03:19.599Z,7.55
2018-01-20T02:05:47.059Z,5.80
2018-01-20T02:08:14.498Z,5.55
2018-01-20T02:10:41.947Z,3.95
2018-01-20T02:13:09.415Z,6.20
2018-01-20T02:15:36.914Z,4.82
2018-01-20T02:18:04.360Z,4.18
2018-01-20T02:20:31.817Z,5.80
2018-01-20T02:22:59.272Z,4.28
2018-01-20T02:25:26.891Z,5.50
2018-01-20T02:27:54.373Z,4.97
2018-01-20T02:30:22.531Z,7.43
2018-01-20T02:32:49.967Z,3.60
2018-01-20T02:35:17.433Z,3.70
2018-01-20T02:37:48.992Z,5.93
2018-01-20T02:40:16.448Z,6.20
2018-01-20T02:42:43.896Z,5.15
2018-01-20T02:45:11.344Z,4.93
2018-01-20T02:47:38.787Z,6.00
2018-01-20T02:50:06.260Z,3.90
2018-01-20T02:52:33.718Z,4.37
2018-01-20T02:55:01.183Z,4.10
2018-01-20T02:57:28.621Z,5.97
2018-01-20T02:59:56.082Z,9.60
2018-01-20T03:02:23.533Z,9.52
2018-01-20T03:04:51.037Z,4.55
2018-01-20T03:07:18.502Z,5.45
2018-01-20T03:09:46.742Z,3.60
2018-01-20T03:12:14.199Z,5.50
2018-01-20T03:14:41.664Z,8.27
2018-01-20T03:17:09.218Z,4.40
2018-01-20T03:19:36.696Z,4.47
2018-01-20T03:22:04.131Z,4.00
2018-01-20T03:24:31.592Z,7.82
2018-01-20T03:26:59.048Z,8.80
2018-01-20T03:29:26.527Z,4.97
2018-01-20T03:31:53.974Z,6.97
2018-01-20T03:34:21.427Z,4.65
2018-01-20T03:36:48.866Z,5.32
2018-01-20T03:39:16.328Z,4.75
2018-01-20T03:41:43.813Z,4.05
2018-01-20T03:44:11.295Z,4.75
2018-01-20T03:46:38.724Z,7.15
2018-01-20T03:49:06.186Z,5.05
2018-01-20T03:51:33.661Z,9.13
2018-01-20T03:54:01.174Z,9.07
2018-01-20T03:56:28.605Z,5.10
2018-01-20T03:58:56.075Z,7.28
2018-01-20T04:01:23.521Z,6.90
2018-01-20T04:03:50.990Z,7.75
2018-01-20T04:06:18.475Z,9.30
2018-01-20T04:08:45.923Z,9.35
2018-01-20T04:11:13.398Z,8.07
2018-01-20T04:13:41.633Z,5.32
2018-01-20T04:16:09.074Z,6.07
2018-01-20T04:18:36.577Z,10.52
2018-01-20T04:21:04.934Z,5.68
2018-01-20T04:23:32.450Z,5.32
2018-01-20T04:25:59.936Z,6.20
2018-01-20T04:28:27.403Z,7.18
2018-01-20T04:30:54.891Z,5.65
2018-01-20T04:33:23.114Z,6.68
2018-01-20T04:35:50.727Z,6.87
2018-01-20T04:38:18.187Z,5.37
2018-01-20T04:40:46.396Z,5.75
2018-01-20T04:43:13.855Z,5.85
2018-01-20T04:45:41.305Z,3.60
2018-01-20T04:48:08.734Z,4.47
2018-01-20T04:50:36.201Z,4.25
2018-01-20T04:53:03.634Z,4.80
2018-01-20T04:55:31.088Z,4.80
2018-01-20T04:57:59.306Z,4.35
2018-01-20T05:00:26.766Z,5.22
2018-01-20T05:02:54.215Z,4.68
2018-01-20T05:05:21.694Z,4.37
2018-01-20T05:07:49.171Z,5.70
2018-01-20T05:10:16.626Z,3.60
2018-01-20T05:12:44.088Z,5.12
2018-01-20T05:15:12.300Z,3.50
2018-01-20T05:17:39.770Z,4.57
2018-01-20T05:20:07.195Z,3.72
2018-01-20T05:22:34.691Z,4.03
2018-01-20T05:25:02.168Z,3.60
2018-01-20T05:27:29.653Z,2.67
2018-01-20T05:29:57.102Z,3.05
2018-01-20T05:32:25.335Z,3.05
2018-01-20T05:34:53.555Z,3.33
2018-01-20T05:37:22.645Z,2.53
2018-01-20T05:39:50.108Z,2.80
2018-01-20T05:42:17.576Z,2.95
2018-01-20T05:44:45.055Z,3.12
2018-01-20T05:47:12.497Z,2.85
2018-01-20T05:49:39.943Z,3.20
2018-01-20T05:52:07.394Z,3.00
2018-01-20T05:54:34.856Z,4.75
2018-01-20T05:57:02.290Z,2.80
2018-01-20T05:59:30.605Z,4.45
2018-01-20T06:01:58.026Z,5.90
2018-01-20T06:04:26.254Z,2.45
2018-01-20T06:06:53.706Z,2.60
2018-01-20T06:09:21.887Z,3.25
2018-01-20T06:11:49.351Z,3.55
2018-01-20T06:14:16.796Z,2.65
2018-01-20T06:16:44.252Z,2.62
2018-01-20T06:19:13.725Z,4.07
2018-01-20T06:21:41.171Z,3.62
2018-01-20T06:24:10.345Z,2.67
2018-01-20T06:26:37.817Z,2.40
2018-01-20T06:29:05.353Z,2.87
2018-01-20T06:31:32.943Z,2.65
2018-01-20T06:34:00.404Z,3.05
2018-01-20T06:36:27.859Z,3.10
2018-01-20T06:38:55.318Z,5.75
2018-01-20T06:41:22.772Z,2.67
2018-01-20T06:43:50.518Z,2.80
2018-01-20T06:46:17.959Z,2.62
2018-01-20T06:48:45.405Z,2.97
2018-01-20T06:51:13.168Z,3.25
2018-01-20T06:53:41.808Z,3.97
2018-01-20T06:56:09.246Z,3.80
2018-01-20T06:58:36.852Z,3.80
2018-01-20T07:01:04.342Z,3.05
2018-01-20T07:03:32.570Z,3.00
2018-01-20T07:06:00.566Z,3.42
2018-01-20T07:08:28.060Z,3.90
2018-01-20T07:10:56.305Z,3.58
2018-01-20T07:13:24.077Z,4.30
2018-01-20T07:15:52.294Z,4.15
2018-01-20T07:18:19.759Z,4.07
2018-01-20T07:20:47.219Z,4.62
2018-01-20T07:23:15.168Z,5.22
2018-01-20T07:25:42.699Z,5.00
2018-01-20T07:28:10.897Z,5.20
2018-01-20T07:30:38.343Z,5.47
2018-01-20T07:33:05.851Z,3.87
2018-01-20T07:35:34.183Z,4.18
2018-01-20T07:38:01.616Z,6.12
2018-01-20T07:40:29.182Z,5.75
2018-01-20T07:42:57.516Z,4.72
2018-01-20T07:45:25.385Z,10.43
2018-01-20T07:47:52.941Z,4.57
2018-01-20T07:50:20.411Z,5.65
2018-01-20T07:52:48.118Z,4.78
2018-01-20T07:55:15.615Z,8.65
2018-01-20T07:57:43.653Z,5.50
2018-01-20T08:00:11.136Z,5.75
2018-01-20T08:02:38.605Z,8.13
2018-01-20T08:05:06.665Z,5.20
2018-01-20T08:07:34.140Z,5.03
2018-01-20T08:10:01.604Z,4.65
2018-01-20T08:12:30.557Z,7.40
2018-01-20T08:14:58.055Z,4.25
2018-01-20T08:17:26.326Z,8.73
2018-01-20T08:19:54.553Z,5.75
2018-01-20T08:22:22.086Z,5.32
2018-01-20T08:24:49.551Z,8.30
2018-01-20T08:27:17.069Z,4.85
2018-01-20T08:29:45.371Z,4.80
2018-01-20T08:32:12.806Z,4.75
2018-01-20T08:34:41.867Z,7.55
2018-01-20T08:37:09.325Z,6.07
2018-01-20T08:39:36.791Z,4.30
2018-01-20T08:42:04.247Z,8.85
2018-01-20T08:44:31.702Z,7.95
2018-01-20T08:46:59.747Z,4.30
2018-01-20T08:49:27.205Z,6.50
2018-01-20T08:51:54.705Z,3.47
2018-01-20T08:54:23.004Z,8.63
2018-01-20T08:56:50.491Z,6.12
2018-01-20T08:59:17.952Z,3.50
2018-01-20T09:01:45.406Z,4.82
2018-01-20T09:04:13.030Z,6.18
2018-01-20T09:06:40.467Z,4.15
2018-01-20T09:09:12.136Z,5.07
2018-01-20T09:11:39.577Z,5.40
2018-01-20T09:14:07.860Z,12.88
2018-01-20T09:16:36.044Z,7.50
2018-01-20T09:19:03.524Z,7.07
2018-01-20T09:21:30.991Z,7.18
2018-01-20T09:23:58.417Z,4.03
2018-01-20T09:26:25.884Z,5.93
2018-01-20T09:28:57.170Z,4.55
2018-01-20T09:31:24.715Z,5.12
2018-01-20T09:33:52.165Z,5.95
2018-01-20T09:36:19.627Z,8.07
2018-01-20T09:38:47.578Z,4.25
2018-01-20T09:41:15.035Z,6.20
2018-01-20T09:43:42.479Z,3.80
2018-01-20T09:46:09.961Z,7.57
2018-01-20T09:48:37.448Z,4.90
2018-01-20T09:51:04.927Z,7.93
2018-01-20T09:53:32.384Z,6.28
2018-01-20T09:55:59.883Z,7.18
2018-01-20T09:58:27.358Z,8.52
2018-01-20T10:00:54.815Z,6.75
2018-01-20T10:03:22.297Z,5.65
2018-01-20T10:05:50.540Z,6.50
2018-01-20T10:08:18.006Z,4.30
2018-01-20T10:10:45.476Z,4.57
2018-01-20T10:13:13.695Z,7.68
2018-01-20T10:15:41.145Z,5.75
2018-01-20T10:18:08.707Z,6.95
2018-01-20T10:20:36.166Z,6.60
2018-01-20T10:23:03.620Z,5.30
2018-01-20T10:25:31.094Z,7.25
2018-01-20T10:27:58.574Z,6.70
2018-01-20T10:30:26.974Z,5.68
2018-01-20T10:32:55.202Z,4.62
2018-01-20T10:35:22.642Z,4.95
2018-01-20T10:37:50.098Z,5.18
2018-01-20T10:40:17.548Z,5.50
2018-01-20T10:42:45.015Z,6.90
2018-01-20T10:45:12.492Z,4.97
2018-01-20T10:47:39.927Z,9.88
2018-01-20T10:50:07.389Z,6.10
2018-01-20T10:52:34.852Z,3.08
2018-01-20T10:55:02.304Z,7.35
2018-01-20T10:57:29.765Z,5.47
2018-01-20T10:59:57.235Z,7.25
2018-01-20T11:02:24.693Z,4.15
2018-01-20T11:04:52.164Z,6.25
2018-01-20T11:07:19.625Z,8.00
2018-01-20T11:09:47.823Z,8.02
2018-01-20T11:12:15.276Z,6.12
2018-01-20T11:14:42.757Z,4.07
2018-01-20T11:17:10.207Z,5.97
2018-01-20T11:19:37.648Z,4.68
2018-01-20T11:22:05.625Z,4.78
2018-01-20T11:24:33.098Z,4.70
2018-01-20T11:27:00.531Z,7.45
2018-01-20T11:29:27.991Z,5.28
2018-01-20T11:31:55.434Z,5.93
2018-01-20T11:34:22.907Z,9.52
2018-01-20T11:36:50.347Z,6.07
2018-01-20T11:39:17.810Z,3.92
2018-01-20T11:41:45.251Z,4.85
2018-01-20T11:44:12.703Z,4.53
2018-01-20T11:46:40.960Z,4.57
2018-01-20T11:49:11.839Z,6.95
2018-01-20T11:51:39.326Z,6.22
2018-01-20T11:54:07.854Z,5.90
2018-01-20T11:56:36.076Z,8.63
2018-01-20T11:59:03.513Z,6.57
2018-01-20T12:01:30.992Z,5.15
2018-01-20T12:03:58.422Z,5.05
2018-01-20T12:06:25.878Z,5.43
2018-01-20T12:08:53.420Z,4.12
2018-01-20T12:11:20.871Z,4.53
2018-01-20T12:13:48.334Z,5.55
2018-01-20T12:16:15.825Z,4.95
2018-01-20T12:18:43.280Z,8.13
2018-01-20T12:21:10.761Z,4.43
2018-01-20T12:23:38.239Z,4.95
2018-01-20T12:26:06.470Z,7.15
2018-01-20T12:28:33.911Z,6.28
2018-01-20T12:31:01.381Z,6.80
2018-01-20T12:33:33.119Z,4.95
2018-01-20T12:36:00.584Z,6.65
2018-01-20T12:38:28.041Z,5.10
2018-01-20T12:40:55.504Z,5.87
2018-01-20T12:43:23.035Z,6.35
2018-01-20T12:45:50.862Z,6.05
2018-01-20T12:48:19.124Z,3.95
2018-01-20T12:50:46.539Z,4.87
2018-01-20T12:53:14.019Z,5.18
2018-01-20T12:55:41.471Z,4.60
2018-01-20T12:58:10.839Z,5.43
2018-01-20T13:00:38.324Z,4.95
2018-01-20T13:03:05.865Z,5.43
2018-01-20T13:05:33.359Z,9.82
2018-01-20T13:08:00.855Z,6.07
2018-01-20T13:10:28.361Z,5.82
2018-01-20T13:12:55.808Z,4.62
2018-01-20T13:15:23.410Z,6.03
2018-01-20T13:17:50.978Z,4.85
2018-01-20T13:20:19.314Z,5.65
2018-01-20T13:23:16.512Z,4.30
2018-01-20T13:25:47.749Z,4.03
2018-01-20T13:28:15.304Z,4.07
2018-01-20T13:30:43.090Z,4.57
2018-01-20T13:33:10.697Z,3.40
2018-01-20T13:35:38.294Z,4.03
2018-01-20T13:38:10.432Z,3.22
2018-01-20T13:43:28.218Z,5.40
2018-01-20T13:46:02.542Z,5.03
2018-01-20T13:48:30.118Z,4.95
2018-01-20T13:50:57.694Z,2.80
2018-01-20T13:53:25.308Z,5.43
2018-01-20T13:58:46.430Z,3.30
2018-01-20T14:01:13.891Z,2.40
2018-01-20T14:03:41.334Z,3.03
2018-01-20T14:06:09.569Z,3.00
2018-01-20T14:08:37.024Z,3.53
2018-01-20T14:11:04.512Z,2.95
2018-01-20T14:13:32.736Z,3.22
2018-01-20T14:16:00.214Z,2.20
2018-01-20T14:18:27.674Z,3.87
2018-01-20T14:20:55.143Z,2.40
2018-01-20T14:23:22.619Z,4.47
2018-01-20T14:25:50.845Z,2.85
2018-01-20T14:28:18.319Z,4.07
2018-01-20T14:30:46.535Z,4.87
2018-01-20T14:33:13.988Z,2.87
2018-01-20T14:35:42.107Z,2.50
2018-01-20T14:38:09.666Z,4.50
2018-01-20T14:40:37.132Z,2.25
2018-01-20T14:43:04.619Z,4.68
2018-01-20T14:45:32.881Z,2.65
2018-01-20T14:48:01.207Z,3.30
2018-01-20T14:50:28.662Z,3.17
2018-01-20T14:52:56.148Z,3.37
2018-01-20T14:55:23.604Z,4.28
2018-01-20T14:57:51.066Z,3.00
2018-01-20T15:00:19.106Z,2.97
2018-01-20T15:02:46.565Z,2.90
2018-01-20T15:05:14.080Z,2.45
2018-01-20T15:07:41.564Z,2.28
2018-01-20T15:10:09.088Z,2.35
2018-01-20T15:12:36.559Z,2.55
2018-01-20T15:15:04.019Z,2.83
2018-01-20T15:17:31.487Z,2.97
2018-01-20T15:19:59.144Z,2.30
2018-01-20T15:22:26.619Z,2.60
2018-01-20T15:24:54.117Z,2.65
2018-01-20T15:27:21.606Z,2.33
2018-01-20T15:29:49.149Z,3.00
2018-01-20T15:32:17.442Z,3.65
2018-01-20T15:34:44.894Z,2.78
2018-01-20T15:37:13.143Z,2.28
2018-01-20T15:39:40.621Z,2.95
2018-01-20T15:42:08.873Z,2.95
2018-01-20T15:44:36.352Z,3.17
2018-01-20T15:47:04.626Z,2.55
2018-01-20T15:49:32.873Z,2.50
2018-01-20T15:52:00.341Z,3.17
2018-01-20T15:54:28.608Z,3.20
2018-01-20T15:56:56.071Z,3.17
2018-01-20T15:59:23.527Z,2.70
2018-01-20T16:01:51.739Z,2.92
2018-01-20T16:04:19.200Z,2.87
2018-01-20T16:06:46.689Z,4.37
2018-01-20T16:09:14.166Z,3.33
2018-01-20T16:11:42.390Z,4.12
2018-01-20T16:14:09.855Z,3.80
2018-01-20T16:16:38.803Z,3.55
2018-01-20T16:19:07.071Z,3.50
2018-01-20T16:21:34.528Z,3.15
2018-01-20T16:24:02.736Z,3.58
2018-01-20T16:26:30.213Z,2.92
2018-01-20T16:28:57.668Z,3.45
2018-01-20T16:31:25.879Z,2.87
2018-01-20T16:33:53.347Z,3.05
2018-01-20T16:36:21.639Z,2.62
2018-01-20T16:38:49.088Z,2.25
2018-01-20T16:41:16.564Z,3.47
2018-01-20T16:43:44.031Z,3.17
2018-01-20T16:46:11.491Z,3.35
2018-01-20T16:48:38.978Z,2.15
2018-01-20T16:51:06.414Z,2.85
2018-01-20T16:53:33.894Z,3.42
2018-01-20T16:56:01.352Z,6.55
2018-01-20T16:58:28.810Z,3.53
2018-01-20T17:00:56.291Z,4.37
2018-01-20T17:03:24.503Z,3.90
2018-01-20T17:05:51.956Z,3.70
2018-01-20T17:08:19.486Z,3.78
2018-01-20T17:10:47.687Z,2.37
2018-01-20T17:13:15.171Z,2.50
2018-01-20T17:15:42.603Z,3.20
2018-01-20T17:18:10.075Z,3.15
2018-01-20T17:20:37.502Z,3.12
2018-01-20T17:23:05.075Z,3.45
2018-01-20T17:25:32.594Z,3.70
2018-01-20T17:28:00.809Z,4.03
2018-01-20T17:30:28.273Z,5.47
2018-01-20T17:32:56.506Z,4.37
2018-01-20T17:35:24.735Z,3.12
2018-01-20T17:37:52.234Z,2.85
2018-01-20T17:40:20.506Z,3.00
2018-01-20T17:42:47.891Z,3.58
2018-01-20T17:45:15.385Z,2.45
2018-01-20T17:47:42.820Z,3.22
2018-01-20T17:50:10.344Z,2.90
2018-01-20T17:52:37.799Z,3.08
2018-01-20T17:55:05.256Z,3.30
2018-01-20T17:57:32.730Z,5.10
2018-01-20T18:00:00.203Z,3.30
2018-01-20T18:02:27.686Z,3.62
2018-01-20T18:04:55.897Z,3.33
2018-01-20T18:07:23.355Z,3.60
2018-01-20T18:09:50.819Z,4.03
2018-01-20T18:12:18.297Z,4.65
2018-01-20T18:14:45.749Z,8.00
2018-01-20T18:17:13.214Z,7.75
2018-01-20T18:19:41.173Z,13.13
2018-01-20T18:22:08.636Z,8.30
2018-01-20T18:24:36.112Z,8.93
2018-01-20T18:27:03.577Z,10.20
2018-01-20T18:29:31.105Z,10.77
2018-01-20T18:31:58.591Z,9.05
2018-01-20T18:34:26.057Z,9.35
2018-01-20T18:36:53.514Z,11.93
2018-01-20T18:39:21.012Z,11.30
2018-01-20T18:41:48.526Z,11.23
2018-01-20T18:44:15.994Z,10.52
2018-01-20T18:46:43.443Z,13.25
2018-01-20T18:49:11.023Z,11.77
2018-01-20T18:51:41.926Z,15.18
2018-01-20T18:54:09.401Z,11.63
2018-01-20T18:56:37.614Z,11.12
2018-01-20T18:59:05.115Z,14.65
2018-01-20T19:01:32.561Z,13.98
2018-01-20T19:04:00.052Z,13.48
2018-01-20T19:06:27.491Z,15.32
2018-01-20T19:08:54.944Z,13.95
2018-01-20T19:11:23.190Z,14.18
2018-01-20T19:13:50.894Z,14.60
2018-01-20T19:16:18.337Z,12.80
2018-01-20T19:18:46.571Z,15.15
2018-01-20T19:21:14.050Z,13.48
2018-01-20T19:23:41.503Z,13.15
2018-01-20T19:26:08.987Z,17.17
2018-01-20T19:28:36.424Z,14.75
2018-01-20T19:31:03.892Z,15.13
2018-01-20T19:33:32.112Z,15.40
2018-01-20T19:35:59.565Z,12.37
2018-01-20T19:38:27.073Z,12.82
2018-01-20T19:40:54.886Z,13.50
2018-01-20T19:43:22.332Z,17.25
2018-01-20T19:45:49.771Z,17.33
2018-01-20T19:48:17.236Z,13.77
2018-01-20T19:50:44.698Z,12.32
2018-01-20T19:53:12.179Z,15.18
2018-01-20T19:55:39.616Z,17.52
2018-01-20T19:58:07.099Z,13.62
2018-01-20T20:00:34.531Z,11.02
2018-01-20T20:03:02.008Z,13.32
2018-01-20T20:05:30.224Z,12.63
2018-01-20T20:07:57.679Z,11.77
2018-01-20T20:10:25.942Z,12.50
2018-01-20T20:12:53.413Z,11.80
2018-01-20T20:15:21.653Z,12.27
2018-01-20T20:17:49.444Z,13.50
2018-01-20T20:20:17.710Z,11.57
2018-01-20T20:22:45.149Z,8.90
2018-01-20T20:25:12.607Z,9.35
2018-01-20T20:27:40.077Z,9.77
2018-01-20T20:30:07.534Z,8.43
2018-01-20T20:32:34.980Z,10.48
2018-01-20T20:35:02.469Z,10.05
2018-01-20T20:37:30.663Z,11.93
2018-01-20T20:39:58.121Z,12.00
2018-01-20T20:42:25.591Z,10.65
2018-01-20T20:44:53.052Z,10.45
2018-01-20T20:47:20.523Z,12.88
2018-01-20T20:49:47.973Z,11.27
2018-01-20T20:52:16.204Z,10.65
2018-01-20T20:54:43.655Z,11.25
2018-01-20T20:57:11.553Z,11.65
2018-01-20T20:59:39.014Z,11.25
2018-01-20T21:02:06.474Z,10.70
2018-01-20T21:04:33.927Z,11.20
2018-01-20T21:07:01.378Z,11.00
2018-01-20T21:09:28.810Z,10.55
2018-01-20T21:11:56.274Z,11.38
2018-01-20T21:14:23.714Z,8.65
2018-01-20T21:19:25.019Z,10.75
2018-01-20T21:21:52.494Z,12.05
2018-01-20T21:24:20.979Z,11.02
2018-01-20T21:26:48.442Z,12.25
2018-01-20T21:29:15.924Z,12.27
2018-01-20T21:31:43.396Z,13.25
2018-01-20T21:34:10.863Z,11.20
2018-01-20T21:36:38.313Z,12.10
2018-01-20T21:39:05.815Z,11.70
2018-01-20T21:41:33.350Z,10.93
2018-01-20T21:44:00.792Z,13.10
2018-01-20T21:46:28.247Z,11.90
2018-01-20T21:48:55.701Z,13.85
2018-01-20T21:51:23.166Z,11.40
2018-01-20T21:53:50.624Z,12.05
2018-01-20T21:56:18.087Z,11.73
2018-01-20T21:58:45.559Z,13.23
2018-01-20T22:01:13.046Z,12.48
2018-01-20T22:03:41.253Z,13.13
2018-01-20T22:06:08.782Z,15.35
2018-01-20T22:08:36.244Z,14.82
2018-01-20T22:11:03.711Z,11.65
2018-01-20T22:13:31.167Z,11.90
2018-01-20T22:15:59.610Z,10.77
2018-01-20T22:18:27.055Z,10.45
2018-01-20T22:20:54.501Z,13.90
2018-01-20T22:23:21.976Z,11.20
2018-01-20T22:25:50.216Z,13.15
2018-01-20T22:28:17.682Z,11.20
2018-01-20T22:30:45.116Z,10.50
2018-01-20T22:33:13.324Z,12.00
2018-01-20T22:35:40.769Z,10.15
2018-01-20T22:38:08.995Z,12.20
2018-01-20T22:40:36.430Z,11.52
2018-01-20T22:43:04.651Z,12.23
2018-01-20T22:45:32.121Z,13.30
2018-01-20T22:57:45.367Z,10.50
2018-01-20T23:00:12.853Z,13.60
2018-01-20T23:02:40.321Z,13.00
2018-01-20T23:05:09.147Z,10.70
2018-01-20T23:07:37.368Z,13.75
2018-01-20T23:10:04.840Z,14.15
2018-01-20T23:12:32.286Z,16.48
2018-01-20T23:14:59.771Z,14.02
2018-01-20T23:17:27.208Z,14.60
2018-01-20T23:19:54.676Z,15.00
2018-01-20T23:22:22.136Z,15.63
2018-01-20T23:24:49.587Z,16.15
2018-01-20T23:27:17.047Z,15.63
2018-01-20T23:29:44.519Z,15.68
2018-01-20T23:32:12.656Z,18.55
2018-01-20T23:34:40.115Z,14.80
2018-01-20T23:37:08.367Z,17.62
2018-01-20T23:39:35.806Z,14.65
2018-01-20T23:42:03.306Z,17.15
2018-01-20T23:44:30.784Z,15.98
2018-01-20T23:46:58.263Z,15.00
2018-01-20T23:49:25.767Z,15.80
2018-01-20T23:51:56.042Z,13.23
2018-01-20T23:54:23.608Z,13.32
2018-01-20T23:56:51.042Z,11.48
2018-01-20T23:59:18.509Z,13.88
